sensor_id;sensor_type;location;lat;lon;timestamp;P1;durP1;ratioP1;P2;durP2;ratioP2
14203;SDS011;7185;51.854;6.622;2022-10-18T00:10:03;23.13;;;14.70;;
14203;SDS011;7185;51.854;6.622;2022-10-18T00:15:11;20.88;;;13.57;;
14203;SDS011;7185;51.854;6.622;2022-10-18T00:17:42;22.92;;;14.30;;
14203;SDS011;7185;51.854;6.622;2022-10-18T00:25:28;23.65;;;14.18;;
14203;SDS011;7185;51.854;6.622;2022-10-18T00:30:37;23.58;;;14.27;;
14203;SDS011;7185;51.854;6.622;2022-10-18T00:53:38;18.70;;;11.85;;
14203;SDS011;7185;51.854;6.622;2022-10-18T01:02:15;26.03;;;11.33;;
14203;SDS011;7185;51.854;6.622;2022-10-18T01:04:48;24.90;;;12.70;;
14203;SDS011;7185;51.854;6.622;2022-10-18T01:25:31;21.60;;;12.32;;
14203;SDS011;7185;51.854;6.622;2022-10-18T01:28:08;17.88;;;10.85;;
14203;SDS011;7185;51.854;6.622;2022-10-18T01:33:37;20.63;;;12.05;;
14203;SDS011;7185;51.854;6.622;2022-10-18T01:54:20;16.35;;;10.68;;
14203;SDS011;7185;51.854;6.622;2022-10-18T02:07:15;16.80;;;10.77;;
14203;SDS011;7185;51.854;6.622;2022-10-18T02:12:27;17.88;;;12.05;;
14203;SDS011;7185;51.854;6.622;2022-10-18T02:14:59;20.27;;;11.50;;
14203;SDS011;7185;51.854;6.622;2022-10-18T02:17:34;17.88;;;11.55;;
14203;SDS011;7185;51.854;6.622;2022-10-18T02:20:09;21.50;;;11.32;;
14203;SDS011;7185;51.854;6.622;2022-10-18T02:27:59;20.38;;;12.40;;
14203;SDS011;7185;51.854;6.622;2022-10-18T02:33:03;14.93;;;10.38;;
14203;SDS011;7185;51.854;6.622;2022-10-18T02:38:15;21.10;;;11.95;;
14203;SDS011;7185;51.854;6.622;2022-10-18T02:40:51;19.17;;;10.82;;
14203;SDS011;7185;51.854;6.622;2022-10-18T02:52:19;19.85;;;11.73;;
14203;SDS011;7185;51.854;6.622;2022-10-18T02:58:32;21.20;;;11.48;;
14203;SDS011;7185;51.854;6.622;2022-10-18T03:07:11;16.92;;;11.57;;
14203;SDS011;7185;51.854;6.622;2022-10-18T03:12:52;16.65;;;11.68;;
14203;SDS011;7185;51.854;6.622;2022-10-18T03:23:45;18.52;;;11.50;;
14203;SDS011;7185;51.854;6.622;2022-10-18T03:26:17;19.42;;;11.90;;
14203;SDS011;7185;51.854;6.622;2022-10-18T03:31:20;18.20;;;11.63;;
14203;SDS011;7185;51.854;6.622;2022-10-18T03:33:52;18.60;;;11.65;;
14203;SDS011;7185;51.854;6.622;2022-10-18T03:36:35;19.52;;;11.98;;
14203;SDS011;7185;51.854;6.622;2022-10-18T03:49:22;21.75;;;10.48;;
14203;SDS011;7185;51.854;6.622;2022-10-18T03:54:28;16.75;;;10.73;;
14203;SDS011;7185;51.854;6.622;2022-10-18T03:57:11;19.73;;;11.38;;
14203;SDS011;7185;51.854;6.622;2022-10-18T04:05:15;19.35;;;12.15;;
14203;SDS011;7185;51.854;6.622;2022-10-18T04:08:29;21.83;;;12.85;;
14203;SDS011;7185;51.854;6.622;2022-10-18T04:11:03;22.92;;;12.18;;
14203;SDS011;7185;51.854;6.622;2022-10-18T04:13:37;18.70;;;12.52;;
14203;SDS011;7185;51.854;6.622;2022-10-18T04:18:49;25.10;;;12.48;;
14203;SDS011;7185;51.854;6.622;2022-10-18T04:27:52;20.15;;;13.45;;
14203;SDS011;7185;51.854;6.622;2022-10-18T04:30:51;18.40;;;11.80;;
14203;SDS011;7185;51.854;6.622;2022-10-18T04:41:02;32.20;;;15.20;;
14203;SDS011;7185;51.854;6.622;2022-10-18T04:43:33;25.85;;;14.23;;
14203;SDS011;7185;51.854;6.622;2022-10-18T04:46:07;29.55;;;14.35;;
14203;SDS011;7185;51.854;6.622;2022-10-18T04:48:48;31.02;;;15.98;;
14203;SDS011;7185;51.854;6.622;2022-10-18T04:56:47;46.05;;;19.98;;
14203;SDS011;7185;51.854;6.622;2022-10-18T04:59:19;39.03;;;18.33;;
14203;SDS011;7185;51.854;6.622;2022-10-18T05:01:52;47.08;;;20.30;;
14203;SDS011;7185;51.854;6.622;2022-10-18T05:04:23;42.83;;;18.10;;
14203;SDS011;7185;51.854;6.622;2022-10-18T05:06:55;42.60;;;19.52;;
14203;SDS011;7185;51.854;6.622;2022-10-18T05:09:27;37.75;;;18.77;;
14203;SDS011;7185;51.854;6.622;2022-10-18T05:11:58;38.65;;;19.27;;
14203;SDS011;7185;51.854;6.622;2022-10-18T05:14:30;36.30;;;19.13;;
14203;SDS011;7185;51.854;6.622;2022-10-18T05:17:03;45.83;;;20.45;;
14203;SDS011;7185;51.854;6.622;2022-10-18T05:19:34;42.97;;;20.38;;
14203;SDS011;7185;51.854;6.622;2022-10-18T05:22:06;38.90;;;18.55;;
14203;SDS011;7185;51.854;6.622;2022-10-18T05:24:38;41.15;;;19.48;;
14203;SDS011;7185;51.854;6.622;2022-10-18T05:27:09;45.60;;;19.58;;
14203;SDS011;7185;51.854;6.622;2022-10-18T05:29:41;50.67;;;19.38;;
14203;SDS011;7185;51.854;6.622;2022-10-18T05:32:14;39.45;;;18.42;;
14203;SDS011;7185;51.854;6.622;2022-10-18T05:34:45;43.58;;;21.17;;
14203;SDS011;7185;51.854;6.622;2022-10-18T05:37:17;31.10;;;19.20;;
14203;SDS011;7185;51.854;6.622;2022-10-18T05:39:52;45.97;;;20.55;;
14203;SDS011;7185;51.854;6.622;2022-10-18T05:42:24;48.65;;;21.23;;
14203;SDS011;7185;51.854;6.622;2022-10-18T05:44:55;41.80;;;18.30;;
14203;SDS011;7185;51.854;6.622;2022-10-18T05:47:28;37.08;;;18.73;;
14203;SDS011;7185;51.854;6.622;2022-10-18T05:50:00;45.33;;;20.25;;
14203;SDS011;7185;51.854;6.622;2022-10-18T05:52:31;38.22;;;20.02;;
14203;SDS011;7185;51.854;6.622;2022-10-18T05:55:03;37.45;;;18.05;;
14203;SDS011;7185;51.854;6.622;2022-10-18T05:57:36;37.10;;;18.67;;
14203;SDS011;7185;51.854;6.622;2022-10-18T06:00:08;38.88;;;20.67;;
14203;SDS011;7185;51.854;6.622;2022-10-18T06:02:42;37.65;;;17.63;;
14203;SDS011;7185;51.854;6.622;2022-10-18T06:05:13;33.30;;;18.67;;
14203;SDS011;7185;51.854;6.622;2022-10-18T06:07:45;49.20;;;20.73;;
14203;SDS011;7185;51.854;6.622;2022-10-18T06:10:17;38.03;;;20.83;;
14203;SDS011;7185;51.854;6.622;2022-10-18T06:12:50;36.20;;;20.52;;
14203;SDS011;7185;51.854;6.622;2022-10-18T06:15:22;34.83;;;19.77;;
14203;SDS011;7185;51.854;6.622;2022-10-18T06:17:55;42.13;;;20.00;;
14203;SDS011;7185;51.854;6.622;2022-10-18T06:20:28;39.67;;;21.63;;
14203;SDS011;7185;51.854;6.622;2022-10-18T06:23:02;39.42;;;18.65;;
14203;SDS011;7185;51.854;6.622;2022-10-18T06:25:34;49.78;;;20.63;;
14203;SDS011;7185;51.854;6.622;2022-10-18T06:28:05;39.50;;;20.23;;
14203;SDS011;7185;51.854;6.622;2022-10-18T06:30:37;43.28;;;20.75;;
14203;SDS011;7185;51.854;6.622;2022-10-18T06:33:10;39.60;;;20.27;;
14203;SDS011;7185;51.854;6.622;2022-10-18T06:35:41;36.78;;;19.60;;
14203;SDS011;7185;51.854;6.622;2022-10-18T06:38:13;44.40;;;20.20;;
14203;SDS011;7185;51.854;6.622;2022-10-18T06:40:46;42.85;;;20.15;;
14203;SDS011;7185;51.854;6.622;2022-10-18T06:43:18;32.25;;;19.30;;
14203;SDS011;7185;51.854;6.622;2022-10-18T06:45:49;38.10;;;19.00;;
14203;SDS011;7185;51.854;6.622;2022-10-18T06:48:23;31.38;;;18.70;;
14203;SDS011;7185;51.854;6.622;2022-10-18T06:50:55;35.03;;;19.40;;
14203;SDS011;7185;51.854;6.622;2022-10-18T06:53:29;36.90;;;20.58;;
14203;SDS011;7185;51.854;6.622;2022-10-18T06:56:02;39.53;;;19.00;;
14203;SDS011;7185;51.854;6.622;2022-10-18T06:58:35;35.85;;;19.77;;
14203;SDS011;7185;51.854;6.622;2022-10-18T07:01:07;31.75;;;18.95;;
14203;SDS011;7185;51.854;6.622;2022-10-18T07:03:42;31.70;;;18.55;;
14203;SDS011;7185;51.854;6.622;2022-10-18T07:06:15;39.28;;;19.23;;
14203;SDS011;7185;51.854;6.622;2022-10-18T07:08:48;31.10;;;18.65;;
14203;SDS011;7185;51.854;6.622;2022-10-18T07:11:22;31.45;;;19.13;;
14203;SDS011;7185;51.854;6.622;2022-10-18T07:13:58;42.45;;;19.00;;
14203;SDS011;7185;51.854;6.622;2022-10-18T07:16:32;43.60;;;19.73;;
14203;SDS011;7185;51.854;6.622;2022-10-18T07:19:06;35.63;;;19.40;;
14203;SDS011;7185;51.854;6.622;2022-10-18T07:21:38;33.95;;;20.00;;
14203;SDS011;7185;51.854;6.622;2022-10-18T07:24:09;35.15;;;19.92;;
14203;SDS011;7185;51.854;6.622;2022-10-18T07:26:41;34.63;;;18.77;;
14203;SDS011;7185;51.854;6.622;2022-10-18T07:29:18;36.60;;;20.15;;
14203;SDS011;7185;51.854;6.622;2022-10-18T07:31:49;39.33;;;20.17;;
14203;SDS011;7185;51.854;6.622;2022-10-18T07:34:22;33.67;;;18.25;;
14203;SDS011;7185;51.854;6.622;2022-10-18T07:36:54;38.30;;;19.65;;
14203;SDS011;7185;51.854;6.622;2022-10-18T07:39:25;37.55;;;19.77;;
14203;SDS011;7185;51.854;6.622;2022-10-18T07:41:57;40.58;;;20.52;;
14203;SDS011;7185;51.854;6.622;2022-10-18T07:44:28;39.03;;;19.08;;
14203;SDS011;7185;51.854;6.622;2022-10-18T07:47:00;40.30;;;19.20;;
14203;SDS011;7185;51.854;6.622;2022-10-18T07:49:33;41.03;;;19.30;;
14203;SDS011;7185;51.854;6.622;2022-10-18T07:52:04;44.33;;;19.77;;
14203;SDS011;7185;51.854;6.622;2022-10-18T07:54:36;37.10;;;16.90;;
14203;SDS011;7185;51.854;6.622;2022-10-18T07:57:08;44.55;;;18.67;;
14203;SDS011;7185;51.854;6.622;2022-10-18T07:59:39;40.08;;;18.30;;
14203;SDS011;7185;51.854;6.622;2022-10-18T08:02:15;40.40;;;18.00;;
14203;SDS011;7185;51.854;6.622;2022-10-18T08:04:48;40.60;;;17.63;;
14203;SDS011;7185;51.854;6.622;2022-10-18T08:07:19;40.67;;;18.63;;
14203;SDS011;7185;51.854;6.622;2022-10-18T08:09:51;35.83;;;17.15;;
14203;SDS011;7185;51.854;6.622;2022-10-18T08:12:22;37.60;;;18.52;;
14203;SDS011;7185;51.854;6.622;2022-10-18T08:14:54;41.25;;;17.42;;
14203;SDS011;7185;51.854;6.622;2022-10-18T08:17:26;41.28;;;17.30;;
14203;SDS011;7185;51.854;6.622;2022-10-18T08:19:59;32.55;;;15.57;;
14203;SDS011;7185;51.854;6.622;2022-10-18T08:22:30;30.80;;;15.35;;
14203;SDS011;7185;51.854;6.622;2022-10-18T08:25:02;32.28;;;16.23;;
14203;SDS011;7185;51.854;6.622;2022-10-18T08:27:34;32.47;;;15.23;;
14203;SDS011;7185;51.854;6.622;2022-10-18T08:30:06;36.03;;;15.82;;
14203;SDS011;7185;51.854;6.622;2022-10-18T08:32:39;38.47;;;15.35;;
14203;SDS011;7185;51.854;6.622;2022-10-18T08:35:12;31.13;;;14.18;;
14203;SDS011;7185;51.854;6.622;2022-10-18T08:37:44;29.90;;;15.57;;
14203;SDS011;7185;51.854;6.622;2022-10-18T08:40:16;31.38;;;15.75;;
14203;SDS011;7185;51.854;6.622;2022-10-18T08:42:57;32.13;;;15.93;;
14203;SDS011;7185;51.854;6.622;2022-10-18T08:45:34;31.60;;;15.60;;
14203;SDS011;7185;51.854;6.622;2022-10-18T08:48:15;28.35;;;14.07;;
14203;SDS011;7185;51.854;6.622;2022-10-18T08:50:53;32.40;;;14.40;;
14203;SDS011;7185;51.854;6.622;2022-10-18T08:53:28;37.67;;;15.10;;
14203;SDS011;7185;51.854;6.622;2022-10-18T08:56:05;27.27;;;13.88;;
14203;SDS011;7185;51.854;6.622;2022-10-18T08:58:43;27.95;;;13.27;;
14203;SDS011;7185;51.854;6.622;2022-10-18T09:01:18;27.50;;;14.57;;
14203;SDS011;7185;51.854;6.622;2022-10-18T09:04:06;28.50;;;13.60;;
14203;SDS011;7185;51.854;6.622;2022-10-18T09:06:51;26.30;;;13.65;;
14203;SDS011;7185;51.854;6.622;2022-10-18T09:09:37;27.63;;;13.27;;
14203;SDS011;7185;51.854;6.622;2022-10-18T09:12:22;25.42;;;13.10;;
14203;SDS011;7185;51.854;6.622;2022-10-18T09:15:11;24.77;;;11.90;;
14203;SDS011;7185;51.854;6.622;2022-10-18T09:17:49;20.63;;;10.02;;
14203;SDS011;7185;51.854;6.622;2022-10-18T09:20:47;19.70;;;10.70;;
14203;SDS011;7185;51.854;6.622;2022-10-18T09:23:26;15.55;;;10.23;;
14203;SDS011;7185;51.854;6.622;2022-10-18T09:26:09;24.95;;;10.85;;
14203;SDS011;7185;51.854;6.622;2022-10-18T09:28:50;23.25;;;11.07;;
14203;SDS011;7185;51.854;6.622;2022-10-18T09:34:11;17.67;;;9.13;;
14203;SDS011;7185;51.854;6.622;2022-10-18T09:36:49;17.90;;;9.65;;
14203;SDS011;7185;51.854;6.622;2022-10-18T09:39:24;15.85;;;9.32;;
14203;SDS011;7185;51.854;6.622;2022-10-18T09:42:01;18.08;;;8.55;;
14203;SDS011;7185;51.854;6.622;2022-10-18T09:44:38;22.08;;;10.13;;
14203;SDS011;7185;51.854;6.622;2022-10-18T09:47:15;17.63;;;9.32;;
14203;SDS011;7185;51.854;6.622;2022-10-18T09:49:51;16.52;;;8.98;;
14203;SDS011;7185;51.854;6.622;2022-10-18T09:52:27;24.98;;;10.48;;
14203;SDS011;7185;51.854;6.622;2022-10-18T09:55:12;19.52;;;9.23;;
14203;SDS011;7185;51.854;6.622;2022-10-18T09:57:49;17.80;;;8.57;;
14203;SDS011;7185;51.854;6.622;2022-10-18T10:00:25;17.33;;;7.90;;
14203;SDS011;7185;51.854;6.622;2022-10-18T10:05:31;19.25;;;7.25;;
14203;SDS011;7185;51.854;6.622;2022-10-18T10:08:03;13.07;;;6.20;;
14203;SDS011;7185;51.854;6.622;2022-10-18T10:10:37;13.75;;;5.90;;
14203;SDS011;7185;51.854;6.622;2022-10-18T10:13:16;16.15;;;5.95;;
14203;SDS011;7185;51.854;6.622;2022-10-18T10:15:52;16.73;;;5.50;;
14203;SDS011;7185;51.854;6.622;2022-10-18T10:18:26;14.15;;;5.53;;
14203;SDS011;7185;51.854;6.622;2022-10-18T10:21:02;11.82;;;5.13;;
14203;SDS011;7185;51.854;6.622;2022-10-18T10:23:36;13.27;;;4.63;;
14203;SDS011;7185;51.854;6.622;2022-10-18T10:26:21;11.32;;;4.10;;
14203;SDS011;7185;51.854;6.622;2022-10-18T10:28:55;9.85;;;4.40;;
14203;SDS011;7185;51.854;6.622;2022-10-18T10:31:28;15.30;;;4.50;;
14203;SDS011;7185;51.854;6.622;2022-10-18T10:34:01;8.73;;;3.80;;
14203;SDS011;7185;51.854;6.622;2022-10-18T10:36:34;10.30;;;4.15;;
14203;SDS011;7185;51.854;6.622;2022-10-18T10:39:17;10.43;;;3.25;;
14203;SDS011;7185;51.854;6.622;2022-10-18T10:41:52;7.68;;;3.30;;
14203;SDS011;7185;51.854;6.622;2022-10-18T10:44:26;8.63;;;3.17;;
14203;SDS011;7185;51.854;6.622;2022-10-18T10:47:01;10.82;;;2.63;;
14203;SDS011;7185;51.854;6.622;2022-10-18T10:49:39;8.00;;;2.67;;
14203;SDS011;7185;51.854;6.622;2022-10-18T10:52:15;6.75;;;2.80;;
14203;SDS011;7185;51.854;6.622;2022-10-18T10:54:48;11.27;;;2.72;;
14203;SDS011;7185;51.854;6.622;2022-10-18T10:57:22;7.57;;;2.42;;
14203;SDS011;7185;51.854;6.622;2022-10-18T10:59:57;8.98;;;2.20;;
14203;SDS011;7185;51.854;6.622;2022-10-18T11:02:29;7.20;;;2.65;;
14203;SDS011;7185;51.854;6.622;2022-10-18T11:05:14;8.80;;;2.65;;
14203;SDS011;7185;51.854;6.622;2022-10-18T11:10:26;9.93;;;3.08;;
14203;SDS011;7185;51.854;6.622;2022-10-18T11:13:08;9.90;;;3.20;;
14203;SDS011;7185;51.854;6.622;2022-10-18T11:15:53;7.15;;;2.97;;
14203;SDS011;7185;51.854;6.622;2022-10-18T11:21:06;6.45;;;2.95;;
14203;SDS011;7185;51.854;6.622;2022-10-18T11:23:43;9.00;;;2.75;;
14203;SDS011;7185;51.854;6.622;2022-10-18T11:26:22;5.38;;;2.22;;
14203;SDS011;7185;51.854;6.622;2022-10-18T11:34:46;7.97;;;3.00;;
14203;SDS011;7185;51.854;6.622;2022-10-18T11:37:29;7.57;;;2.83;;
14203;SDS011;7185;51.854;6.622;2022-10-18T11:40:17;8.68;;;2.85;;
14203;SDS011;7185;51.854;6.622;2022-10-18T11:43:04;6.55;;;2.40;;
14203;SDS011;7185;51.854;6.622;2022-10-18T11:45:43;7.20;;;2.10;;
14203;SDS011;7185;51.854;6.622;2022-10-18T11:50:52;9.23;;;1.80;;
14203;SDS011;7185;51.854;6.622;2022-10-18T11:53:33;7.32;;;1.88;;
14203;SDS011;7185;51.854;6.622;2022-10-18T11:59:36;5.47;;;1.60;;
14203;SDS011;7185;51.854;6.622;2022-10-18T12:02:24;7.00;;;2.20;;
14203;SDS011;7185;51.854;6.622;2022-10-18T12:05:11;8.35;;;1.80;;
14203;SDS011;7185;51.854;6.622;2022-10-18T12:07:46;6.75;;;1.77;;
14203;SDS011;7185;51.854;6.622;2022-10-18T12:12:56;8.40;;;2.00;;
14203;SDS011;7185;51.854;6.622;2022-10-18T12:15:32;8.93;;;1.60;;
14203;SDS011;7185;51.854;6.622;2022-10-18T12:18:09;6.10;;;1.92;;
14203;SDS011;7185;51.854;6.622;2022-10-18T12:20:45;8.43;;;1.88;;
14203;SDS011;7185;51.854;6.622;2022-10-18T12:25:58;7.43;;;1.73;;
14203;SDS011;7185;51.854;6.622;2022-10-18T12:28:37;7.22;;;1.70;;
14203;SDS011;7185;51.854;6.622;2022-10-18T12:31:19;9.05;;;1.85;;
14203;SDS011;7185;51.854;6.622;2022-10-18T12:36:39;4.45;;;1.38;;
14203;SDS011;7185;51.854;6.622;2022-10-18T12:39:22;6.03;;;1.65;;
14203;SDS011;7185;51.854;6.622;2022-10-18T12:41:56;5.95;;;1.17;;
14203;SDS011;7185;51.854;6.622;2022-10-18T12:44:29;7.60;;;1.52;;
14203;SDS011;7185;51.854;6.622;2022-10-18T12:47:02;7.00;;;1.40;;
14203;SDS011;7185;51.854;6.622;2022-10-18T12:49:36;6.28;;;1.40;;
14203;SDS011;7185;51.854;6.622;2022-10-18T12:52:19;5.43;;;1.33;;
14203;SDS011;7185;51.854;6.622;2022-10-18T12:55:01;7.97;;;1.77;;
14203;SDS011;7185;51.854;6.622;2022-10-18T13:03:36;5.22;;;1.55;;
14203;SDS011;7185;51.854;6.622;2022-10-18T13:06:09;7.37;;;1.87;;
14203;SDS011;7185;51.854;6.622;2022-10-18T13:08:42;6.47;;;1.52;;
14203;SDS011;7185;51.854;6.622;2022-10-18T13:11:33;5.97;;;1.40;;
14203;SDS011;7185;51.854;6.622;2022-10-18T13:14:18;5.63;;;1.40;;
14203;SDS011;7185;51.854;6.622;2022-10-18T13:17:11;4.95;;;1.08;;
14203;SDS011;7185;51.854;6.622;2022-10-18T13:19:53;8.38;;;1.52;;
14203;SDS011;7185;51.854;6.622;2022-10-18T13:22:43;4.10;;;1.35;;
14203;SDS011;7185;51.854;6.622;2022-10-18T13:25:28;5.22;;;1.40;;
14203;SDS011;7185;51.854;6.622;2022-10-18T13:28:17;8.32;;;1.58;;
14203;SDS011;7185;51.854;6.622;2022-10-18T13:30:59;8.18;;;1.70;;
14203;SDS011;7185;51.854;6.622;2022-10-18T13:33:34;5.55;;;1.48;;
14203;SDS011;7185;51.854;6.622;2022-10-18T13:36:18;7.40;;;1.30;;
14203;SDS011;7185;51.854;6.622;2022-10-18T13:38:59;8.07;;;1.50;;
14203;SDS011;7185;51.854;6.622;2022-10-18T13:44:40;5.95;;;1.27;;
14203;SDS011;7185;51.854;6.622;2022-10-18T13:47:14;4.32;;;1.23;;
14203;SDS011;7185;51.854;6.622;2022-10-18T13:52:56;4.22;;;1.25;;
14203;SDS011;7185;51.854;6.622;2022-10-18T13:55:46;4.25;;;1.20;;
14203;SDS011;7185;51.854;6.622;2022-10-18T13:58:28;5.32;;;1.40;;
14203;SDS011;7185;51.854;6.622;2022-10-18T14:12:51;6.18;;;1.10;;
14203;SDS011;7185;51.854;6.622;2022-10-18T14:24:07;6.50;;;1.45;;
14203;SDS011;7185;51.854;6.622;2022-10-18T14:26:45;6.25;;;1.25;;
14203;SDS011;7185;51.854;6.622;2022-10-18T14:29:19;7.05;;;1.60;;
14203;SDS011;7185;51.854;6.622;2022-10-18T14:31:51;7.70;;;1.33;;
14203;SDS011;7185;51.854;6.622;2022-10-18T14:34:24;7.32;;;1.15;;
14203;SDS011;7185;51.854;6.622;2022-10-18T14:36:56;6.65;;;1.30;;
14203;SDS011;7185;51.854;6.622;2022-10-18T14:39:27;5.72;;;1.38;;
14203;SDS011;7185;51.854;6.622;2022-10-18T14:41:59;7.53;;;1.30;;
14203;SDS011;7185;51.854;6.622;2022-10-18T14:44:32;5.97;;;1.13;;
14203;SDS011;7185;51.854;6.622;2022-10-18T14:47:12;6.65;;;1.67;;
14203;SDS011;7185;51.854;6.622;2022-10-18T14:49:47;10.40;;;1.60;;
14203;SDS011;7185;51.854;6.622;2022-10-18T14:52:21;4.72;;;1.10;;
14203;SDS011;7185;51.854;6.622;2022-10-18T14:54:57;3.80;;;1.02;;
14203;SDS011;7185;51.854;6.622;2022-10-18T14:57:31;4.47;;;1.10;;
14203;SDS011;7185;51.854;6.622;2022-10-18T15:00:06;3.40;;;0.90;;
14203;SDS011;7185;51.854;6.622;2022-10-18T15:02:39;5.68;;;1.13;;
14203;SDS011;7185;51.854;6.622;2022-10-18T15:05:16;3.42;;;1.13;;
14203;SDS011;7185;51.854;6.622;2022-10-18T15:07:59;7.82;;;1.65;;
14203;SDS011;7185;51.854;6.622;2022-10-18T15:10:31;4.35;;;1.35;;
14203;SDS011;7185;51.854;6.622;2022-10-18T15:13:05;7.78;;;1.40;;
14203;SDS011;7185;51.854;6.622;2022-10-18T15:15:38;8.82;;;1.13;;
14203;SDS011;7185;51.854;6.622;2022-10-18T15:18:14;4.57;;;1.10;;
14203;SDS011;7185;51.854;6.622;2022-10-18T15:21:06;8.20;;;1.45;;
14203;SDS011;7185;51.854;6.622;2022-10-18T15:23:39;7.07;;;1.25;;
14203;SDS011;7185;51.854;6.622;2022-10-18T15:26:11;5.55;;;1.20;;
14203;SDS011;7185;51.854;6.622;2022-10-18T15:28:50;3.50;;;1.05;;
14203;SDS011;7185;51.854;6.622;2022-10-18T15:31:28;9.15;;;1.30;;
14203;SDS011;7185;51.854;6.622;2022-10-18T15:34:08;4.38;;;1.48;;
14203;SDS011;7185;51.854;6.622;2022-10-18T15:36:46;6.28;;;1.23;;
14203;SDS011;7185;51.854;6.622;2022-10-18T15:39:19;6.65;;;1.40;;
14203;SDS011;7185;51.854;6.622;2022-10-18T15:41:52;11.50;;;1.73;;
14203;SDS011;7185;51.854;6.622;2022-10-18T15:44:26;4.63;;;1.38;;
14203;SDS011;7185;51.854;6.622;2022-10-18T15:47:14;6.33;;;1.33;;
14203;SDS011;7185;51.854;6.622;2022-10-18T15:49:51;7.30;;;1.35;;
14203;SDS011;7185;51.854;6.622;2022-10-18T15:52:32;5.38;;;1.40;;
14203;SDS011;7185;51.854;6.622;2022-10-18T15:58:15;7.15;;;1.20;;
14203;SDS011;7185;51.854;6.622;2022-10-18T16:00:50;8.93;;;2.20;;
14203;SDS011;7185;51.854;6.622;2022-10-18T16:03:24;2.85;;;1.13;;
14203;SDS011;7185;51.854;6.622;2022-10-18T16:05:57;5.90;;;1.48;;
14203;SDS011;7185;51.854;6.622;2022-10-18T16:08:30;5.50;;;1.30;;
14203;SDS011;7185;51.854;6.622;2022-10-18T16:11:06;6.60;;;2.03;;
14203;SDS011;7185;51.854;6.622;2022-10-18T16:13:43;3.97;;;0.88;;
14203;SDS011;7185;51.854;6.622;2022-10-18T16:16:16;5.82;;;1.30;;
14203;SDS011;7185;51.854;6.622;2022-10-18T16:18:52;3.83;;;1.40;;
14203;SDS011;7185;51.854;6.622;2022-10-18T16:21:24;6.70;;;1.45;;
14203;SDS011;7185;51.854;6.622;2022-10-18T16:23:58;5.18;;;1.45;;
14203;SDS011;7185;51.854;6.622;2022-10-18T16:26:30;8.90;;;1.80;;
14203;SDS011;7185;51.854;6.622;2022-10-18T16:29:03;7.90;;;1.30;;
14203;SDS011;7185;51.854;6.622;2022-10-18T16:31:35;4.80;;;1.42;;
14203;SDS011;7185;51.854;6.622;2022-10-18T16:34:08;5.07;;;1.00;;
14203;SDS011;7185;51.854;6.622;2022-10-18T16:36:40;8.38;;;1.38;;
14203;SDS011;7185;51.854;6.622;2022-10-18T16:39:13;6.35;;;1.20;;
14203;SDS011;7185;51.854;6.622;2022-10-18T16:41:46;5.18;;;1.30;;
14203;SDS011;7185;51.854;6.622;2022-10-18T16:44:18;8.63;;;1.33;;
14203;SDS011;7185;51.854;6.622;2022-10-18T16:46:49;6.38;;;1.10;;
14203;SDS011;7185;51.854;6.622;2022-10-18T16:49:23;8.20;;;1.83;;
14203;SDS011;7185;51.854;6.622;2022-10-18T16:51:56;7.65;;;1.48;;
14203;SDS011;7185;51.854;6.622;2022-10-18T16:54:28;6.82;;;1.73;;
14203;SDS011;7185;51.854;6.622;2022-10-18T16:57:00;6.30;;;1.60;;
14203;SDS011;7185;51.854;6.622;2022-10-18T16:59:31;8.60;;;1.52;;
14203;SDS011;7185;51.854;6.622;2022-10-18T17:02:03;6.45;;;1.33;;
14203;SDS011;7185;51.854;6.622;2022-10-18T17:04:39;7.90;;;1.67;;
14203;SDS011;7185;51.854;6.622;2022-10-18T17:07:11;10.13;;;1.70;;
14203;SDS011;7185;51.854;6.622;2022-10-18T17:09:51;4.65;;;1.42;;
14203;SDS011;7185;51.854;6.622;2022-10-18T17:12:23;5.07;;;1.77;;
14203;SDS011;7185;51.854;6.622;2022-10-18T17:14:55;5.82;;;1.40;;
14203;SDS011;7185;51.854;6.622;2022-10-18T17:17:26;5.97;;;1.60;;
14203;SDS011;7185;51.854;6.622;2022-10-18T17:19:59;6.07;;;1.30;;
14203;SDS011;7185;51.854;6.622;2022-10-18T17:22:31;4.97;;;1.35;;
14203;SDS011;7185;51.854;6.622;2022-10-18T17:25:03;5.82;;;1.60;;
14203;SDS011;7185;51.854;6.622;2022-10-18T17:27:35;9.48;;;1.25;;
14203;SDS011;7185;51.854;6.622;2022-10-18T17:30:07;3.30;;;1.30;;
14203;SDS011;7185;51.854;6.622;2022-10-18T17:32:40;6.68;;;1.58;;
14203;SDS011;7185;51.854;6.622;2022-10-18T17:35:15;3.78;;;1.55;;
14203;SDS011;7185;51.854;6.622;2022-10-18T17:37:46;8.63;;;1.60;;
14203;SDS011;7185;51.854;6.622;2022-10-18T17:40:19;8.27;;;1.92;;
14203;SDS011;7185;51.854;6.622;2022-10-18T17:42:53;11.43;;;2.20;;
14203;SDS011;7185;51.854;6.622;2022-10-18T17:45:24;13.93;;;2.33;;
14203;SDS011;7185;51.854;6.622;2022-10-18T17:47:56;9.20;;;2.25;;
14203;SDS011;7185;51.854;6.622;2022-10-18T17:50:29;8.60;;;2.45;;
14203;SDS011;7185;51.854;6.622;2022-10-18T17:53:01;10.75;;;2.53;;
14203;SDS011;7185;51.854;6.622;2022-10-18T17:55:32;9.38;;;2.13;;
14203;SDS011;7185;51.854;6.622;2022-10-18T17:58:05;9.52;;;2.15;;
14203;SDS011;7185;51.854;6.622;2022-10-18T18:00:36;13.73;;;2.20;;
14203;SDS011;7185;51.854;6.622;2022-10-18T18:03:08;4.25;;;2.22;;
14203;SDS011;7185;51.854;6.622;2022-10-18T18:05:41;11.70;;;2.58;;
14203;SDS011;7185;51.854;6.622;2022-10-18T18:08:12;8.98;;;2.30;;
14203;SDS011;7185;51.854;6.622;2022-10-18T18:10:44;7.43;;;2.40;;
14203;SDS011;7185;51.854;6.622;2022-10-18T18:13:16;12.82;;;2.95;;
14203;SDS011;7185;51.854;6.622;2022-10-18T18:15:47;9.75;;;3.25;;
14203;SDS011;7185;51.854;6.622;2022-10-18T18:18:19;15.10;;;3.95;;
14203;SDS011;7185;51.854;6.622;2022-10-18T18:20:52;11.65;;;3.72;;
14203;SDS011;7185;51.854;6.622;2022-10-18T18:23:23;9.20;;;3.72;;
14203;SDS011;7185;51.854;6.622;2022-10-18T18:25:56;12.55;;;3.97;;
14203;SDS011;7185;51.854;6.622;2022-10-18T18:28:28;11.60;;;3.78;;
14203;SDS011;7185;51.854;6.622;2022-10-18T18:31:03;12.48;;;3.75;;
14203;SDS011;7185;51.854;6.622;2022-10-18T18:33:36;9.10;;;3.00;;
14203;SDS011;7185;51.854;6.622;2022-10-18T18:36:09;12.45;;;4.22;;
14203;SDS011;7185;51.854;6.622;2022-10-18T18:38:41;14.40;;;4.85;;
14203;SDS011;7185;51.854;6.622;2022-10-18T18:41:13;9.55;;;4.18;;
14203;SDS011;7185;51.854;6.622;2022-10-18T18:43:48;10.32;;;4.50;;
14203;SDS011;7185;51.854;6.622;2022-10-18T18:46:21;9.30;;;4.30;;
14203;SDS011;7185;51.854;6.622;2022-10-18T18:48:55;15.90;;;3.65;;
14203;SDS011;7185;51.854;6.622;2022-10-18T18:51:29;15.02;;;3.80;;
14203;SDS011;7185;51.854;6.622;2022-10-18T18:54:02;11.18;;;3.78;;
14203;SDS011;7185;51.854;6.622;2022-10-18T18:56:34;8.85;;;3.65;;
14203;SDS011;7185;51.854;6.622;2022-10-18T18:59:05;13.18;;;3.85;;
14203;SDS011;7185;51.854;6.622;2022-10-18T19:01:37;9.45;;;4.00;;
14203;SDS011;7185;51.854;6.622;2022-10-18T19:04:09;9.40;;;3.40;;
14203;SDS011;7185;51.854;6.622;2022-10-18T19:06:43;11.75;;;4.57;;
14203;SDS011;7185;51.854;6.622;2022-10-18T19:09:16;9.30;;;3.97;;
14203;SDS011;7185;51.854;6.622;2022-10-18T19:11:52;10.88;;;4.15;;
14203;SDS011;7185;51.854;6.622;2022-10-18T19:14:25;9.23;;;3.65;;
14203;SDS011;7185;51.854;6.622;2022-10-18T19:16:58;14.30;;;4.03;;
14203;SDS011;7185;51.854;6.622;2022-10-18T19:19:30;13.70;;;4.10;;
14203;SDS011;7185;51.854;6.622;2022-10-18T19:22:03;16.67;;;4.68;;
14203;SDS011;7185;51.854;6.622;2022-10-18T19:24:38;14.10;;;3.60;;
14203;SDS011;7185;51.854;6.622;2022-10-18T19:27:10;10.45;;;3.78;;
14203;SDS011;7185;51.854;6.622;2022-10-18T19:29:42;13.60;;;4.50;;
14203;SDS011;7185;51.854;6.622;2022-10-18T19:32:15;11.63;;;4.28;;
14203;SDS011;7185;51.854;6.622;2022-10-18T19:34:47;11.13;;;4.28;;
14203;SDS011;7185;51.854;6.622;2022-10-18T19:37:20;11.00;;;4.90;;
14203;SDS011;7185;51.854;6.622;2022-10-18T19:39:52;20.92;;;5.05;;
14203;SDS011;7185;51.854;6.622;2022-10-18T19:42:24;16.30;;;5.80;;